Awaji Maru — JD2988 — position and weather

sailwx.info

Track history (hours):
 
Tides and Currents Weather Stations Pressure Air Temp Water Temp Dewpoint Dewpoint Depression Visibility Wind Speed Wind Dir Waves Ship Positions

Awaji Maru

Last reported at 2016-Aug-26 19:34 UTC. Time now 2016-Aug-26 20:03 UTC.
Position N 35°26' E 139°42'.

Length 37 m; draft 3 m.

Type: Tug. MMSI: 431001074.

Date/timePositionNaut miles runAvg speedWind from/ knotsBaromVisibWave heightAir tempDewpointWater temp
2016-Aug-26 19:34N 35°26' E 139°42'1 0.8
2016-Aug-26 18:33N 35°26' E 139°41'1 1.4
2016-Aug-26 17:33N 35°28' E 139°41'0 0.0
2016-Aug-26 16:33N 35°28' E 139°41'0 0.0
2016-Aug-26 15:33N 35°28' E 139°41'0 0.0
2016-Aug-26 14:34N 35°28' E 139°41'0 0.0
2016-Aug-26 13:34N 35°28' E 139°41'0 0.0
2016-Aug-26 12:33N 35°28' E 139°41'1 1.3
2016-Aug-26 11:33N 35°26' E 139°41'1 1.0
2016-Aug-26 10:34N 35°26' E 139°42'1 0.8
2016-Aug-26 09:33N 35°27' E 139°42'0 0.0
2016-Aug-26 08:33N 35°27' E 139°42'1 0.8
2016-Aug-26 07:34N 35°27' E 139°41'1 1.1
2016-Aug-26 06:33N 35°28' E 139°41'3 1.7
2016-Aug-26 04:34N 35°24' E 139°42'4 3.9
2016-Aug-26 03:34N 35°24' E 139°37'4 3.7
2016-Aug-26 02:33N 35°27' E 139°39'0 0.1
2016-Aug-26 01:33N 35°27' E 139°39'0 0.0
2016-Aug-26 00:34N 35°27' E 139°39'0 0.0
2016-Aug-25 23:34N 35°27' E 139°39'0 0.0
2016-Aug-25 22:33N 35°27' E 139°39'0 0.0
2016-Aug-25 21:34N 35°27' E 139°39'0 0.0
2016-Aug-25 20:33N 35°27' E 139°39'0 0.0
2016-Aug-25 19:33N 35°27' E 139°39'0 0.0
2016-Aug-25 18:33N 35°27' E 139°39'0 0.0
2016-Aug-25 17:33N 35°27' E 139°39'0 0.0
2016-Aug-25 16:34N 35°27' E 139°39'0 0.0
2016-Aug-25 15:33N 35°27' E 139°39'0 0.0
2016-Aug-25 14:34N 35°27' E 139°39'0 0.0
2016-Aug-25 13:33N 35°27' E 139°39'0 0.0
2016-Aug-25 12:34N 35°27' E 139°39'0 0.0
2016-Aug-25 11:34N 35°27' E 139°39'0 0.0
2016-Aug-25 10:33N 35°27' E 139°39'0 0.0
2016-Aug-25 09:34N 35°27' E 139°39'0 0.0
2016-Aug-25 08:33N 35°27' E 139°39'0 0.0
2016-Aug-25 07:33N 35°27' E 139°39'6 5.8
2016-Aug-25 06:34N 35°29' E 139°45'6 2.9
2016-Aug-25 04:33N 35°27' E 139°39'1 0.6
2016-Aug-25 03:34N 35°27' E 139°39'1 1.5
2016-Aug-25 02:34N 35°29' E 139°39'0 0.0
2016-Aug-25 01:34N 35°29' E 139°39'0 0.0
2016-Aug-25 00:33N 35°29' E 139°39'1 0.6
2016-Aug-24 23:33N 35°28' E 139°39'1 1.2
2016-Aug-24 22:33N 35°27' E 139°39'0 0.0
2016-Aug-24 21:34N 35°27' E 139°39'0 0.0
2016-Aug-24 20:33N 35°27' E 139°39'0 0.0
2016-Aug-24 19:34N 35°27' E 139°39'0 0.0
2016-Aug-24 18:34N 35°27' E 139°39'0 0.0
2016-Aug-24 17:34N 35°27' E 139°39'0 0.0
2016-Aug-24 16:33N 35°27' E 139°39'0 0.0
2016-Aug-24 15:34N 35°27' E 139°39'0 0.0
2016-Aug-24 14:33N 35°27' E 139°39'0 0.0
2016-Aug-24 13:34N 35°27' E 139°39'0 0.0
2016-Aug-24 12:33N 35°27' E 139°39'2 2.5
2016-Aug-24 11:33N 35°28' E 139°41'1 0.9
2016-Aug-24 10:33N 35°28' E 139°42'1 0.9
2016-Aug-24 09:33N 35°27' E 139°42'0 0.0
2016-Aug-24 08:33N 35°27' E 139°42'0 0.0
2016-Aug-24 07:34N 35°27' E 139°42'9 8.7
2016-Aug-24 06:34N 35°18' E 139°44'5 2.6
2016-Aug-24 04:32N 35°13' E 139°43'0 0.0
2016-Aug-24 03:33N 35°13' E 139°43'3 2.6
2016-Aug-24 02:33N 35°12' E 139°46'1212.1
2016-Aug-24 01:33N 35°24' E 139°43'7 7.1
2016-Aug-24 00:33N 35°31' E 139°46'2 1.6
2016-Aug-23 23:33N 35°30' E 139°44'5 5.4
2016-Aug-23 22:33N 35°27' E 139°39'0 0.0
2016-Aug-23 21:34N 35°27' E 139°39'0 0.0
2016-Aug-23 20:34N 35°27' E 139°39'0 0.0
2016-Aug-23 19:33N 35°27' E 139°39'0 0.0
2016-Aug-23 18:33N 35°27' E 139°39'0 0.0
2016-Aug-23 17:33N 35°27' E 139°39'0 0.0
2016-Aug-23 16:33N 35°27' E 139°39'0 0.0
2016-Aug-23 15:34N 35°27' E 139°39'0 0.0
2016-Aug-23 14:33N 35°27' E 139°39'0 0.0
2016-Aug-23 13:33N 35°27' E 139°39'0 0.0
2016-Aug-23 12:34N 35°27' E 139°39'0 0.0
2016-Aug-23 11:34N 35°27' E 139°39'0 0.0
2016-Aug-23 10:33N 35°27' E 139°39'0 0.0
2016-Aug-23 09:33N 35°27' E 139°39'0 0.0
2016-Aug-23 08:34N 35°27' E 139°39'3 2.8
2016-Aug-23 07:34N 35°28' E 139°42'3 2.8
2016-Aug-23 06:34N 35°27' E 139°39'2 2.2
2016-Aug-23 05:33N 35°26' E 139°41'1 1.5
2016-Aug-23 04:34N 35°27' E 139°39'1110.6
2016-Aug-23 03:33N 35°30' E 139°52'5 5.2
2016-Aug-23 02:33N 35°28' E 139°58'1 1.2
2016-Aug-23 01:33N 35°28' E 139°57'1 1.5
2016-Aug-23 00:33N 35°29' E 139°55'1 1.4
2016-Aug-22 23:33N 35°28' E 139°54'1010.4
2016-Aug-22 22:34N 35°27' E 139°41'3 2.9
2016-Aug-22 21:34N 35°26' E 139°44'5 4.8
2016-Aug-22 20:34N 35°27' E 139°39'0 0.0
2016-Aug-22 19:34N 35°27' E 139°39'0 0.0
2016-Aug-22 18:34N 35°27' E 139°39'0 0.0
2016-Aug-22 17:34N 35°27' E 139°39'0 0.0
2016-Aug-22 16:34N 35°27' E 139°39'0 0.0
2016-Aug-22 15:33N 35°27' E 139°39'0 0.0
2016-Aug-22 14:33N 35°27' E 139°39'0 0.0
2016-Aug-22 13:34N 35°27' E 139°39'0 0.0
2016-Aug-22 12:33N 35°27' E 139°39'0 0.0
2016-Aug-22 11:34N 35°27' E 139°39'0 0.0
2016-Aug-22 10:34N 35°27' E 139°39'0 0.0
2016-Aug-22 09:34N 35°27' E 139°39'0 0.0
2016-Aug-22 08:33N 35°27' E 139°39'0 0.0
2016-Aug-22 07:33N 35°27' E 139°39'0 0.0
2016-Aug-22 06:33N 35°27' E 139°39'0 0.0
2016-Aug-22 05:33N 35°27' E 139°39'0 0.0
2016-Aug-22 04:34N 35°27' E 139°39'0 0.0
2016-Aug-22 03:33N 35°27' E 139°39'0 0.0
2016-Aug-22 02:34N 35°27' E 139°39'0 0.0
2016-Aug-22 01:33N 35°27' E 139°39'0 0.0
2016-Aug-22 00:33N 35°27' E 139°39'0 0.0
2016-Aug-21 23:34N 35°27' E 139°39'0 0.0
2016-Aug-21 22:34N 35°27' E 139°39'0 0.0
2016-Aug-21 21:33N 35°27' E 139°39'0 0.0
2016-Aug-21 20:34N 35°27' E 139°39'0 0.0
2016-Aug-21 19:34N 35°27' E 139°39'0 0.0
2016-Aug-21 18:33N 35°27' E 139°39'0 0.0
2016-Aug-21 17:34N 35°27' E 139°39'0 0.0
2016-Aug-21 16:33N 35°27' E 139°39'0 0.0
2016-Aug-21 15:34N 35°27' E 139°39'0 0.0
2016-Aug-21 14:34N 35°27' E 139°39'0 0.0
2016-Aug-21 13:34N 35°27' E 139°39'0 0.0
2016-Aug-21 12:34N 35°27' E 139°39'0 0.0
2016-Aug-21 11:33N 35°27' E 139°39'0 0.0
2016-Aug-21 10:34N 35°27' E 139°39'0 0.0
2016-Aug-21 09:34N 35°27' E 139°39'0 0.0
2016-Aug-21 08:33N 35°27' E 139°39'0 0.0
2016-Aug-21 07:34N 35°27' E 139°39'3 3.5
2016-Aug-21 06:34N 35°24' E 139°40'1 0.5
2016-Aug-21 05:34N 35°24' E 139°40'0 0.0
2016-Aug-21 04:33N 35°24' E 139°40'1 0.8
2016-Aug-21 03:34N 35°24' E 139°41'1 1.2
2016-Aug-21 02:33N 35°23' E 139°41'1 0.5
2016-Aug-21 01:34N 35°23' E 139°40'8 8.4
2016-Aug-21 00:33N 35°29' E 139°47'2 2.5
2016-Aug-20 23:34N 35°32' E 139°46'7 7.0
2016-Aug-20 22:33N 35°27' E 139°39'0 0.1
2016-Aug-20 21:34N 35°27' E 139°39'0 0.0
2016-Aug-20 20:33N 35°27' E 139°39'0 0.0
2016-Aug-20 19:33N 35°27' E 139°39'0 0.0
2016-Aug-20 18:34N 35°27' E 139°39'0 0.0
2016-Aug-20 17:33N 35°27' E 139°39'0 0.0
2016-Aug-20 16:34N 35°27' E 139°39'0 0.0
2016-Aug-20 15:33N 35°27' E 139°39'0 0.0
2016-Aug-20 14:33N 35°27' E 139°39'0 0.0
2016-Aug-20 13:34N 35°27' E 139°39'0 0.0
2016-Aug-20 12:33N 35°27' E 139°39'0 0.0
2016-Aug-20 11:33N 35°27' E 139°39'0 0.0
2016-Aug-20 10:33N 35°27' E 139°39'2 2.1
2016-Aug-20 09:34N 35°26' E 139°41'2 2.1
2016-Aug-20 08:34N 35°27' E 139°39'0 0.0
2016-Aug-20 07:34N 35°27' E 139°39'0 0.0
2016-Aug-20 06:33N 35°27' E 139°39'0 0.0
2016-Aug-20 05:34N 35°27' E 139°39'3 2.8
2016-Aug-20 04:34N 35°28' E 139°42'1 0.5
2016-Aug-20 03:33N 35°28' E 139°42'2 1.7
2016-Aug-20 02:34N 35°29' E 139°42'3 3.4
2016-Aug-20 01:34N 35°26' E 139°44'2 1.6
2016-Aug-20 00:34N 35°27' E 139°42'2 1.6
2016-Aug-19 23:34N 35°28' E 139°40'1 1.5
2016-Aug-19 22:33N 35°27' E 139°39'0 0.0
2016-Aug-19 21:34N 35°27' E 139°39'0 0.0
2016-Aug-19 20:33N 35°27' E 139°39'0 0.0
2016-Aug-19 19:34N 35°27' E 139°39'0 0.0
2016-Aug-19 18:33N 35°27' E 139°39'0 0.0
2016-Aug-19 17:34N 35°27' E 139°39'0 0.0
2016-Aug-19 16:34N 35°27' E 139°39'0 0.0
2016-Aug-19 15:34N 35°27' E 139°39'0 0.0
2016-Aug-19 14:34N 35°27' E 139°39'0 0.0
2016-Aug-19 13:33N 35°27' E 139°39'0 0.0
2016-Aug-19 12:34N 35°27' E 139°39'0 0.0
2016-Aug-19 11:33N 35°27' E 139°39'0 0.0
2016-Aug-19 10:33N 35°27' E 139°39'0 0.0
2016-Aug-19 09:33N 35°27' E 139°39'0 0.0
2016-Aug-19 08:33N 35°27' E 139°39'0 0.0
2016-Aug-19 07:34N 35°27' E 139°39'0 0.0
2016-Aug-19 06:33N 35°27' E 139°39'0 0.0
2016-Aug-19 05:34N 35°27' E 139°39'2 2.2
2016-Aug-19 04:33N 35°27' E 139°41'4 3.8
2016-Aug-19 03:33N 35°24' E 139°38'0 0.1
2016-Aug-19 02:33N 35°24' E 139°38'2 2.3
2016-Aug-19 01:33N 35°23' E 139°40'0 0.2
2016-Aug-19 00:34N 35°22' E 139°40'2 1.8
2016-Aug-18 23:34N 35°24' E 139°41'4 3.8
2016-Aug-18 22:33N 35°27' E 139°39'0 0.1
2016-Aug-18 21:33N 35°27' E 139°39'0 0.0
2016-Aug-18 20:34N 35°27' E 139°39'0 0.0
2016-Aug-18 19:34N 35°27' E 139°39'0 0.0
2016-Aug-18 18:33N 35°27' E 139°39'0 0.0
2016-Aug-18 17:34N 35°27' E 139°39'0 0.0
2016-Aug-18 16:34N 35°27' E 139°39'0 0.0
2016-Aug-18 15:34N 35°27' E 139°39'0 0.0
2016-Aug-18 14:34N 35°27' E 139°39'0 0.0
2016-Aug-18 13:34N 35°27' E 139°39'0 0.0
2016-Aug-18 12:34N 35°27' E 139°39'0 0.0
2016-Aug-18 11:33N 35°27' E 139°39'0 0.0
2016-Aug-18 10:34N 35°27' E 139°39'0 0.0
2016-Aug-18 09:34N 35°27' E 139°39'0 0.0
2016-Aug-18 08:34N 35°27' E 139°39'0 0.1
2016-Aug-18 07:34N 35°27' E 139°39'4 3.5
2016-Aug-18 06:34N 35°24' E 139°40'2 1.6
2016-Aug-18 05:34N 35°23' E 139°42'4 4.2
2016-Aug-18 04:34N 35°27' E 139°40'0 0.0
2016-Aug-18 03:34N 35°27' E 139°40'3 3.1
2016-Aug-18 02:34N 35°28' E 139°43'1 1.2
2016-Aug-18 01:33N 35°28' E 139°44'2 1.6
2016-Aug-18 00:34N 35°27' E 139°45'6 6.4
2016-Aug-17 23:34N 35°20' E 139°44'1010.2
2016-Aug-17 22:33N 35°10' E 139°47'7 7.3
2016-Aug-17 21:33N 35°17' E 139°44'1110.9
2016-Aug-17 20:33N 35°27' E 139°39'1 0.7
2016-Aug-17 19:34N 35°27' E 139°39'0 0.0
2016-Aug-17 18:33N 35°27' E 139°39'0 0.0
2016-Aug-17 17:33N 35°27' E 139°39'0 0.0
2016-Aug-17 16:33N 35°27' E 139°39'0 0.0
2016-Aug-17 15:33N 35°27' E 139°39'0 0.0
2016-Aug-17 14:33N 35°27' E 139°39'0 0.0
2016-Aug-17 13:33N 35°27' E 139°39'0 0.0
2016-Aug-17 12:34N 35°27' E 139°39'0 0.0
2016-Aug-17 11:34N 35°27' E 139°39'0 0.0
2016-Aug-17 10:34N 35°27' E 139°39'0 0.0
2016-Aug-17 09:33N 35°27' E 139°39'0 0.0
2016-Aug-17 08:33N 35°27' E 139°39'5 4.6
2016-Aug-17 07:33N 35°23' E 139°42'3 2.8
2016-Aug-17 06:33N 35°25' E 139°39'1 1.2
2016-Aug-17 05:34N 35°24' E 139°40'3 3.0
2016-Aug-17 04:33N 35°27' E 139°41'2 2.3
2016-Aug-17 03:33N 35°27' E 139°39'0 0.0
2016-Aug-17 02:34N 35°27' E 139°39'0 0.0
2016-Aug-17 01:33N 35°27' E 139°39'0 0.0
2016-Aug-17 00:34N 35°27' E 139°39'0 0.0
2016-Aug-16 23:33N 35°27' E 139°39'0 0.0
2016-Aug-16 22:33N 35°27' E 139°39'0 0.0
2016-Aug-16 21:33N 35°27' E 139°39'0 0.0
2016-Aug-16 20:33N 35°27' E 139°39'0 0.0
2016-Aug-16 19:34N 35°27' E 139°39'  
Track history (hours):
 
Tides and Currents Weather Stations Pressure Air Temp Water Temp Dewpoint Dewpoint Depression Visibility Wind Speed Wind Dir Waves Ship Positions

Awaji Maru

Last reported at 2016-Aug-26 19:34 UTC. Time now 2016-Aug-26 20:03 UTC.
Position N 35°26' E 139°42'.

Length 37 m; draft 3 m.

Type: Tug. MMSI: 431001074.

Date/timePositionNaut miles runAvg speedWind from/ knotsBaromVisibWave heightAir tempDewpointWater temp
2016-Aug-26 19:34N 35°26' E 139°42'1 0.8
2016-Aug-26 18:33N 35°26' E 139°41'1 1.4
2016-Aug-26 17:33N 35°28' E 139°41'0 0.0
2016-Aug-26 16:33N 35°28' E 139°41'0 0.0
2016-Aug-26 15:33N 35°28' E 139°41'0 0.0
2016-Aug-26 14:34N 35°28' E 139°41'0 0.0
2016-Aug-26 13:34N 35°28' E 139°41'0 0.0
2016-Aug-26 12:33N 35°28' E 139°41'1 1.3
2016-Aug-26 11:33N 35°26' E 139°41'1 1.0
2016-Aug-26 10:34N 35°26' E 139°42'1 0.8
2016-Aug-26 09:33N 35°27' E 139°42'0 0.0
2016-Aug-26 08:33N 35°27' E 139°42'1 0.8
2016-Aug-26 07:34N 35°27' E 139°41'1 1.1
2016-Aug-26 06:33N 35°28' E 139°41'3 1.7
2016-Aug-26 04:34N 35°24' E 139°42'4 3.9
2016-Aug-26 03:34N 35°24' E 139°37'4 3.7
2016-Aug-26 02:33N 35°27' E 139°39'0 0.1
2016-Aug-26 01:33N 35°27' E 139°39'0 0.0
2016-Aug-26 00:34N 35°27' E 139°39'0 0.0
2016-Aug-25 23:34N 35°27' E 139°39'0 0.0
2016-Aug-25 22:33N 35°27' E 139°39'0 0.0
2016-Aug-25 21:34N 35°27' E 139°39'0 0.0
2016-Aug-25 20:33N 35°27' E 139°39'0 0.0
2016-Aug-25 19:33N 35°27' E 139°39'0 0.0
2016-Aug-25 18:33N 35°27' E 139°39'0 0.0
2016-Aug-25 17:33N 35°27' E 139°39'0 0.0
2016-Aug-25 16:34N 35°27' E 139°39'0 0.0
2016-Aug-25 15:33N 35°27' E 139°39'0 0.0
2016-Aug-25 14:34N 35°27' E 139°39'0 0.0
2016-Aug-25 13:33N 35°27' E 139°39'0 0.0
2016-Aug-25 12:34N 35°27' E 139°39'0 0.0
2016-Aug-25 11:34N 35°27' E 139°39'0 0.0
2016-Aug-25 10:33N 35°27' E 139°39'0 0.0
2016-Aug-25 09:34N 35°27' E 139°39'0 0.0
2016-Aug-25 08:33N 35°27' E 139°39'0 0.0
2016-Aug-25 07:33N 35°27' E 139°39'6 5.8
2016-Aug-25 06:34N 35°29' E 139°45'6 2.9
2016-Aug-25 04:33N 35°27' E 139°39'1 0.6
2016-Aug-25 03:34N 35°27' E 139°39'1 1.5
2016-Aug-25 02:34N 35°29' E 139°39'0 0.0
2016-Aug-25 01:34N 35°29' E 139°39'0 0.0
2016-Aug-25 00:33N 35°29' E 139°39'1 0.6
2016-Aug-24 23:33N 35°28' E 139°39'1 1.2
2016-Aug-24 22:33N 35°27' E 139°39'0 0.0
2016-Aug-24 21:34N 35°27' E 139°39'0 0.0
2016-Aug-24 20:33N 35°27' E 139°39'0 0.0
2016-Aug-24 19:34N 35°27' E 139°39'0 0.0
2016-Aug-24 18:34N 35°27' E 139°39'0 0.0
2016-Aug-24 17:34N 35°27' E 139°39'0 0.0
2016-Aug-24 16:33N 35°27' E 139°39'0 0.0
2016-Aug-24 15:34N 35°27' E 139°39'0 0.0
2016-Aug-24 14:33N 35°27' E 139°39'0 0.0
2016-Aug-24 13:34N 35°27' E 139°39'0 0.0
2016-Aug-24 12:33N 35°27' E 139°39'2 2.5
2016-Aug-24 11:33N 35°28' E 139°41'1 0.9
2016-Aug-24 10:33N 35°28' E 139°42'1 0.9
2016-Aug-24 09:33N 35°27' E 139°42'0 0.0
2016-Aug-24 08:33N 35°27' E 139°42'0 0.0
2016-Aug-24 07:34N 35°27' E 139°42'9 8.7
2016-Aug-24 06:34N 35°18' E 139°44'5 2.6
2016-Aug-24 04:32N 35°13' E 139°43'0 0.0
2016-Aug-24 03:33N 35°13' E 139°43'3 2.6
2016-Aug-24 02:33N 35°12' E 139°46'1212.1
2016-Aug-24 01:33N 35°24' E 139°43'7 7.1
2016-Aug-24 00:33N 35°31' E 139°46'2 1.6
2016-Aug-23 23:33N 35°30' E 139°44'5 5.4
2016-Aug-23 22:33N 35°27' E 139°39'0 0.0
2016-Aug-23 21:34N 35°27' E 139°39'0 0.0
2016-Aug-23 20:34N 35°27' E 139°39'0 0.0
2016-Aug-23 19:33N 35°27' E 139°39'0 0.0
2016-Aug-23 18:33N 35°27' E 139°39'0 0.0
2016-Aug-23 17:33N 35°27' E 139°39'0 0.0
2016-Aug-23 16:33N 35°27' E 139°39'0 0.0
2016-Aug-23 15:34N 35°27' E 139°39'0 0.0
2016-Aug-23 14:33N 35°27' E 139°39'0 0.0
2016-Aug-23 13:33N 35°27' E 139°39'0 0.0
2016-Aug-23 12:34N 35°27' E 139°39'0 0.0
2016-Aug-23 11:34N 35°27' E 139°39'0 0.0
2016-Aug-23 10:33N 35°27' E 139°39'0 0.0
2016-Aug-23 09:33N 35°27' E 139°39'0 0.0
2016-Aug-23 08:34N 35°27' E 139°39'3 2.8
2016-Aug-23 07:34N 35°28' E 139°42'3 2.8
2016-Aug-23 06:34N 35°27' E 139°39'2 2.2
2016-Aug-23 05:33N 35°26' E 139°41'1 1.5
2016-Aug-23 04:34N 35°27' E 139°39'1110.6
2016-Aug-23 03:33N 35°30' E 139°52'5 5.2
2016-Aug-23 02:33N 35°28' E 139°58'1 1.2
2016-Aug-23 01:33N 35°28' E 139°57'1 1.5
2016-Aug-23 00:33N 35°29' E 139°55'1 1.4
2016-Aug-22 23:33N 35°28' E 139°54'1010.4
2016-Aug-22 22:34N 35°27' E 139°41'3 2.9
2016-Aug-22 21:34N 35°26' E 139°44'5 4.8
2016-Aug-22 20:34N 35°27' E 139°39'0 0.0
2016-Aug-22 19:34N 35°27' E 139°39'0 0.0
2016-Aug-22 18:34N 35°27' E 139°39'0 0.0
2016-Aug-22 17:34N 35°27' E 139°39'0 0.0
2016-Aug-22 16:34N 35°27' E 139°39'0 0.0
2016-Aug-22 15:33N 35°27' E 139°39'0 0.0
2016-Aug-22 14:33N 35°27' E 139°39'0 0.0
2016-Aug-22 13:34N 35°27' E 139°39'0 0.0
2016-Aug-22 12:33N 35°27' E 139°39'0 0.0
2016-Aug-22 11:34N 35°27' E 139°39'0 0.0
2016-Aug-22 10:34N 35°27' E 139°39'0 0.0
2016-Aug-22 09:34N 35°27' E 139°39'0 0.0
2016-Aug-22 08:33N 35°27' E 139°39'0 0.0
2016-Aug-22 07:33N 35°27' E 139°39'0 0.0
2016-Aug-22 06:33N 35°27' E 139°39'0 0.0
2016-Aug-22 05:33N 35°27' E 139°39'0 0.0
2016-Aug-22 04:34N 35°27' E 139°39'0 0.0
2016-Aug-22 03:33N 35°27' E 139°39'0 0.0
2016-Aug-22 02:34N 35°27' E 139°39'0 0.0
2016-Aug-22 01:33N 35°27' E 139°39'0 0.0
2016-Aug-22 00:33N 35°27' E 139°39'0 0.0
2016-Aug-21 23:34N 35°27' E 139°39'0 0.0
2016-Aug-21 22:34N 35°27' E 139°39'0 0.0
2016-Aug-21 21:33N 35°27' E 139°39'0 0.0
2016-Aug-21 20:34N 35°27' E 139°39'0 0.0
2016-Aug-21 19:34N 35°27' E 139°39'0 0.0
2016-Aug-21 18:33N 35°27' E 139°39'0 0.0
2016-Aug-21 17:34N 35°27' E 139°39'0 0.0
2016-Aug-21 16:33N 35°27' E 139°39'0 0.0
2016-Aug-21 15:34N 35°27' E 139°39'0 0.0
2016-Aug-21 14:34N 35°27' E 139°39'0 0.0
2016-Aug-21 13:34N 35°27' E 139°39'0 0.0
2016-Aug-21 12:34N 35°27' E 139°39'0 0.0
2016-Aug-21 11:33N 35°27' E 139°39'0 0.0
2016-Aug-21 10:34N 35°27' E 139°39'0 0.0
2016-Aug-21 09:34N 35°27' E 139°39'0 0.0
2016-Aug-21 08:33N 35°27' E 139°39'0 0.0
2016-Aug-21 07:34N 35°27' E 139°39'3 3.5
2016-Aug-21 06:34N 35°24' E 139°40'1 0.5
2016-Aug-21 05:34N 35°24' E 139°40'0 0.0
2016-Aug-21 04:33N 35°24' E 139°40'1 0.8
2016-Aug-21 03:34N 35°24' E 139°41'1 1.2
2016-Aug-21 02:33N 35°23' E 139°41'1 0.5
2016-Aug-21 01:34N 35°23' E 139°40'8 8.4
2016-Aug-21 00:33N 35°29' E 139°47'2 2.5
2016-Aug-20 23:34N 35°32' E 139°46'7 7.0
2016-Aug-20 22:33N 35°27' E 139°39'0 0.1
2016-Aug-20 21:34N 35°27' E 139°39'0 0.0
2016-Aug-20 20:33N 35°27' E 139°39'0 0.0
2016-Aug-20 19:33N 35°27' E 139°39'0 0.0
2016-Aug-20 18:34N 35°27' E 139°39'0 0.0
2016-Aug-20 17:33N 35°27' E 139°39'0 0.0
2016-Aug-20 16:34N 35°27' E 139°39'0 0.0
2016-Aug-20 15:33N 35°27' E 139°39'0 0.0
2016-Aug-20 14:33N 35°27' E 139°39'0 0.0
2016-Aug-20 13:34N 35°27' E 139°39'0 0.0
2016-Aug-20 12:33N 35°27' E 139°39'0 0.0
2016-Aug-20 11:33N 35°27' E 139°39'0 0.0
2016-Aug-20 10:33N 35°27' E 139°39'2 2.1
2016-Aug-20 09:34N 35°26' E 139°41'2 2.1
2016-Aug-20 08:34N 35°27' E 139°39'0 0.0
2016-Aug-20 07:34N 35°27' E 139°39'0 0.0
2016-Aug-20 06:33N 35°27' E 139°39'0 0.0
2016-Aug-20 05:34N 35°27' E 139°39'3 2.8
2016-Aug-20 04:34N 35°28' E 139°42'1 0.5
2016-Aug-20 03:33N 35°28' E 139°42'2 1.7
2016-Aug-20 02:34N 35°29' E 139°42'3 3.4
2016-Aug-20 01:34N 35°26' E 139°44'2 1.6
2016-Aug-20 00:34N 35°27' E 139°42'2 1.6
2016-Aug-19 23:34N 35°28' E 139°40'1 1.5
2016-Aug-19 22:33N 35°27' E 139°39'0 0.0
2016-Aug-19 21:34N 35°27' E 139°39'0 0.0
2016-Aug-19 20:33N 35°27' E 139°39'0 0.0
2016-Aug-19 19:34N 35°27' E 139°39'0 0.0
2016-Aug-19 18:33N 35°27' E 139°39'0 0.0
2016-Aug-19 17:34N 35°27' E 139°39'0 0.0
2016-Aug-19 16:34N 35°27' E 139°39'0 0.0
2016-Aug-19 15:34N 35°27' E 139°39'0 0.0
2016-Aug-19 14:34N 35°27' E 139°39'0 0.0
2016-Aug-19 13:33N 35°27' E 139°39'0 0.0
2016-Aug-19 12:34N 35°27' E 139°39'0 0.0
2016-Aug-19 11:33N 35°27' E 139°39'0 0.0
2016-Aug-19 10:33N 35°27' E 139°39'0 0.0
2016-Aug-19 09:33N 35°27' E 139°39'0 0.0
2016-Aug-19 08:33N 35°27' E 139°39'0 0.0
2016-Aug-19 07:34N 35°27' E 139°39'0 0.0
2016-Aug-19 06:33N 35°27' E 139°39'0 0.0
2016-Aug-19 05:34N 35°27' E 139°39'2 2.2
2016-Aug-19 04:33N 35°27' E 139°41'4 3.8
2016-Aug-19 03:33N 35°24' E 139°38'0 0.1
2016-Aug-19 02:33N 35°24' E 139°38'2 2.3
2016-Aug-19 01:33N 35°23' E 139°40'0 0.2
2016-Aug-19 00:34N 35°22' E 139°40'2 1.8
2016-Aug-18 23:34N 35°24' E 139°41'4 3.8
2016-Aug-18 22:33N 35°27' E 139°39'0 0.1
2016-Aug-18 21:33N 35°27' E 139°39'0 0.0
2016-Aug-18 20:34N 35°27' E 139°39'0 0.0
2016-Aug-18 19:34N 35°27' E 139°39'0 0.0
2016-Aug-18 18:33N 35°27' E 139°39'0 0.0
2016-Aug-18 17:34N 35°27' E 139°39'0 0.0
2016-Aug-18 16:34N 35°27' E 139°39'0 0.0
2016-Aug-18 15:34N 35°27' E 139°39'0 0.0
2016-Aug-18 14:34N 35°27' E 139°39'0 0.0
2016-Aug-18 13:34N 35°27' E 139°39'0 0.0
2016-Aug-18 12:34N 35°27' E 139°39'0 0.0
2016-Aug-18 11:33N 35°27' E 139°39'0 0.0
2016-Aug-18 10:34N 35°27' E 139°39'0 0.0
2016-Aug-18 09:34N 35°27' E 139°39'0 0.0
2016-Aug-18 08:34N 35°27' E 139°39'0 0.1
2016-Aug-18 07:34N 35°27' E 139°39'4 3.5
2016-Aug-18 06:34N 35°24' E 139°40'2 1.6
2016-Aug-18 05:34N 35°23' E 139°42'4 4.2
2016-Aug-18 04:34N 35°27' E 139°40'0 0.0
2016-Aug-18 03:34N 35°27' E 139°40'3 3.1
2016-Aug-18 02:34N 35°28' E 139°43'1 1.2
2016-Aug-18 01:33N 35°28' E 139°44'2 1.6
2016-Aug-18 00:34N 35°27' E 139°45'6 6.4
2016-Aug-17 23:34N 35°20' E 139°44'1010.2
2016-Aug-17 22:33N 35°10' E 139°47'7 7.3
2016-Aug-17 21:33N 35°17' E 139°44'1110.9
2016-Aug-17 20:33N 35°27' E 139°39'1 0.7
2016-Aug-17 19:34N 35°27' E 139°39'0 0.0
2016-Aug-17 18:33N 35°27' E 139°39'0 0.0
2016-Aug-17 17:33N 35°27' E 139°39'0 0.0
2016-Aug-17 16:33N 35°27' E 139°39'0 0.0
2016-Aug-17 15:33N 35°27' E 139°39'0 0.0
2016-Aug-17 14:33N 35°27' E 139°39'0 0.0
2016-Aug-17 13:33N 35°27' E 139°39'0 0.0
2016-Aug-17 12:34N 35°27' E 139°39'0 0.0
2016-Aug-17 11:34N 35°27' E 139°39'0 0.0
2016-Aug-17 10:34N 35°27' E 139°39'0 0.0
2016-Aug-17 09:33N 35°27' E 139°39'0 0.0
2016-Aug-17 08:33N 35°27' E 139°39'5 4.6
2016-Aug-17 07:33N 35°23' E 139°42'3 2.8
2016-Aug-17 06:33N 35°25' E 139°39'1 1.2
2016-Aug-17 05:34N 35°24' E 139°40'3 3.0
2016-Aug-17 04:33N 35°27' E 139°41'2 2.3
2016-Aug-17 03:33N 35°27' E 139°39'0 0.0
2016-Aug-17 02:34N 35°27' E 139°39'0 0.0
2016-Aug-17 01:33N 35°27' E 139°39'0 0.0
2016-Aug-17 00:34N 35°27' E 139°39'0 0.0
2016-Aug-16 23:33N 35°27' E 139°39'0 0.0
2016-Aug-16 22:33N 35°27' E 139°39'0 0.0
2016-Aug-16 21:33N 35°27' E 139°39'0 0.0
2016-Aug-16 20:33N 35°27' E 139°39'0 0.0
2016-Aug-16 19:34N 35°27' E 139°39'  

Dump ship's entire track history